Time;durP1;ratioP1;P1;durP2;ratioP2;P2;SDS_P1;SDS_P2;PMS_P1;PMS_P2;Temp;Humidity;BMP_temperature;BMP_pressure;BME280_temperature;BME280_humidity;BME280_pressure;Samples;Min_cycle;Max_cycle;Signal;HPM_P1;HPM_P2
2023/10/28 00:00:18;;;;;;;2.63;1.23;;;;;;;12.48;100.00;98900.97;5092493;28;20047;-44
2023/10/28 00:02:46;;;;;;;4.10;1.15;;;;;;;12.37;100.00;98896.56;5092556;28;20052;-42
2023/10/28 00:05:15;;;;;;;3.53;1.23;;;;;;;12.29;100.00;98896.41;5092511;28;20060;-43
2023/10/28 00:07:43;;;;;;;3.60;1.20;;;;;;;12.18;100.00;98885.81;5093369;28;20204;-43
2023/10/28 00:10:11;;;;;;;3.38;1.20;;;;;;;12.28;100.00;98884.03;5092781;28;20048;-43
2023/10/28 00:12:41;;;;;;;3.25;1.30;;;;;;;12.42;100.00;98888.13;5092415;28;20500;-44
2023/10/28 00:15:10;;;;;;;5.78;1.20;;;;;;;12.41;100.00;98887.28;5092780;28;20056;-43
2023/10/28 00:17:38;;;;;;;2.45;1.00;;;;;;;12.45;100.00;98894.06;5093041;28;20135;-43
2023/10/28 00:20:08;;;;;;;3.25;1.20;;;;;;;12.45;100.00;98890.53;5093413;28;20103;-45
2023/10/28 00:22:37;;;;;;;5.00;1.45;;;;;;;12.44;100.00;98900.38;5092889;28;20516;-43
2023/10/28 00:25:06;;;;;;;2.90;1.20;;;;;;;12.42;100.00;98905.00;5092523;28;20050;-44
2023/10/28 00:27:35;;;;;;;4.50;1.23;;;;;;;12.43;100.00;98906.72;5092737;28;20094;-43
2023/10/28 00:30:07;;;;;;;3.40;1.20;;;;;;;12.42;100.00;98907.69;5092797;28;20108;-44
2023/10/28 00:32:36;;;;;;;3.03;1.00;;;;;;;12.40;100.00;98901.63;5092975;28;20051;-44
2023/10/28 00:35:07;;;;;;;2.55;1.08;;;;;;;12.44;100.00;98903.03;5092831;28;20051;-43
2023/10/28 00:37:35;;;;;;;1.88;1.00;;;;;;;12.48;100.00;98904.47;5092114;28;20040;-43
2023/10/28 00:40:05;;;;;;;3.97;1.25;;;;;;;12.45;100.00;98907.44;5091863;28;20055;-43
2023/10/28 00:42:35;;;;;;;4.07;1.30;;;;;;;12.45;100.00;98902.09;5092718;28;20129;-44
2023/10/28 00:45:06;;;;;;;2.53;1.20;;;;;;;12.41;100.00;98897.97;5092382;28;20067;-43
2023/10/28 00:47:35;;;;;;;3.17;1.33;;;;;;;12.36;100.00;98900.22;5092710;28;20040;-44
2023/10/28 00:50:09;;;;;;;2.67;1.10;;;;;;;12.36;100.00;98899.38;5092857;28;20044;-42
2023/10/28 00:52:39;;;;;;;2.63;1.20;;;;;;;12.30;100.00;98908.78;5092664;28;20048;-42
2023/10/28 00:55:11;;;;;;;;;;;;;;;12.32;100.00;98921.03;5092136;28;20044;-43
2023/10/28 00:57:40;;;;;;;4.18;1.10;;;;;;;12.33;100.00;98922.72;5091845;28;19920;-44
2023/10/28 01:00:11;;;;;;;2.60;1.02;;;;;;;12.36;100.00;98924.31;5091614;28;20052;-42
2023/10/28 01:02:42;;;;;;;2.10;0.88;;;;;;;12.39;100.00;98932.03;5091440;28;20052;-43
2023/10/28 01:05:12;;;;;;;4.57;1.15;;;;;;;12.43;100.00;98935.28;5091536;28;20055;-42
2023/10/28 01:07:41;;;;;;;3.75;1.20;;;;;;;12.44;100.00;98937.81;5092182;28;20040;-42
2023/10/28 01:10:10;;;;;;;3.13;1.27;;;;;;;12.46;100.00;98935.88;5091693;28;20420;-43
2023/10/28 01:12:39;;;;;;;6.65;1.27;;;;;;;12.43;100.00;98941.47;5124211;27;20052;-43
2023/10/28 01:15:09;;;;;;;1.98;0.90;;;;;;;12.44;100.00;98940.47;5091764;28;20098;-43
2023/10/28 01:17:37;;;;;;;1.83;0.90;;;;;;;12.48;100.00;98930.38;5091917;28;20044;-42
2023/10/28 01:20:09;;;;;;;1.40;0.80;;;;;;;12.43;100.00;98936.13;5092156;28;20044;-46
2023/10/28 01:22:38;;;;;;;3.35;1.20;;;;;;;12.40;100.00;98932.88;5092045;28;20139;-44
2023/10/28 01:25:09;;;;;;;1.20;0.90;;;;;;;12.40;100.00;98946.25;5091009;28;20058;-43
2023/10/28 01:27:43;;;;;;;2.50;0.90;;;;;;;12.40;100.00;98944.44;5092007;28;20052;-43
2023/10/28 01:30:14;;;;;;;3.50;1.10;;;;;;;12.40;100.00;98954.28;5091937;28;20044;-43
2023/10/28 01:32:44;;;;;;;3.33;1.23;;;;;;;12.40;100.00;98954.28;5092208;28;20449;-44
2023/10/28 01:35:13;;;;;;;1.88;0.90;;;;;;;12.44;100.00;98956.53;5091278;28;20048;-43
2023/10/28 01:37:43;;;;;;;4.95;1.23;;;;;;;12.35;100.00;98960.00;5091810;28;20052;-43
2023/10/28 01:40:13;;;;;;;1.40;0.90;;;;;;;12.34;100.00;98955.66;5091398;28;20109;-43
2023/10/28 01:42:45;;;;;;;3.80;1.17;;;;;;;12.28;100.00;98958.88;5091727;28;20052;-45
2023/10/28 01:45:15;;;;;;;3.00;1.40;;;;;;;12.32;100.00;98969.16;5091316;28;20067;-44
2023/10/28 01:47:44;;;;;;;4.35;1.50;;;;;;;12.28;100.00;98961.56;5091611;28;20071;-44
2023/10/28 01:50:13;;;;;;;3.47;1.38;;;;;;;12.18;100.00;98960.66;5092687;28;20449;-43
2023/10/28 01:52:44;;;;;;;2.20;1.10;;;;;;;12.21;100.00;98976.44;5096406;28;20052;-44
2023/10/28 01:55:13;;;;;;;2.92;1.20;;;;;;;12.22;100.00;98972.78;5094758;28;20040;-44
2023/10/28 01:57:41;;;;;;;2.00;1.30;;;;;;;11.99;100.00;98972.94;5094761;28;20086;-43
2023/10/28 02:00:13;;;;;;;3.63;1.27;;;;;;;11.75;100.00;98977.69;5094644;28;20048;-43
2023/10/28 02:02:45;;;;;;;4.18;1.70;;;;;;;11.65;100.00;98979.44;5094601;28;20052;-42
2023/10/28 02:05:15;;;;;;;3.40;1.65;;;;;;;11.66;100.00;98976.63;5094485;28;20408;-43
2023/10/28 02:07:45;;;;;;;4.63;1.23;;;;;;;11.63;100.00;98973.38;5094655;28;20052;-43
2023/10/28 02:10:14;;;;;;;5.03;1.70;;;;;;;11.63;100.00;98976.06;5094678;28;20413;-43
2023/10/28 02:12:43;;;;;;;3.28;1.40;;;;;;;11.73;100.00;98966.28;5094244;28;20052;-45
2023/10/28 02:15:11;;;;;;;3.47;1.45;;;;;;;11.66;100.00;98968.63;5094660;28;20409;-44
2023/10/28 02:17:40;;;;;;;4.30;1.52;;;;;;;11.80;100.00;98967.50;5094465;28;20062;-46
2023/10/28 02:20:10;;;;;;;3.50;1.48;;;;;;;11.92;100.00;98970.94;5095366;28;20104;-44
2023/10/28 02:22:38;;;;;;;3.03;1.58;;;;;;;11.98;100.00;98981.09;5095140;28;20064;-44
2023/10/28 02:25:09;;;;;;;3.78;1.60;;;;;;;11.99;100.00;98982.78;5095176;28;20418;-44
2023/10/28 02:27:38;;;;;;;2.17;1.30;;;;;;;12.17;100.00;98985.72;5094789;28;20074;-43
2023/10/28 02:30:08;;;;;;;2.58;1.50;;;;;;;12.19;100.00;98991.75;5094927;28;20367;-46
2023/10/28 02:32:36;;;;;;;3.63;1.58;;;;;;;12.13;100.00;99001.16;5094328;28;20405;-43
2023/10/28 02:35:05;;;;;;;4.72;1.50;;;;;;;11.93;100.00;99000.19;5094682;28;20459;-44
2023/10/28 02:37:34;;;;;;;4.40;1.60;;;;;;;11.76;100.00;98998.06;5094514;28;20044;-43
2023/10/28 02:40:04;;;;;;;4.00;1.70;;;;;;;11.46;100.00;98991.66;5094797;28;20071;-43
2023/10/28 02:42:33;;;;;;;6.13;1.77;;;;;;;11.38;100.00;98991.44;5094772;28;20390;-42
2023/10/28 02:45:01;;;;;;;5.15;2.05;;;;;;;11.42;100.00;98987.56;5094506;28;20048;-43
2023/10/28 02:47:31;;;;;;;3.45;1.65;;;;;;;11.51;100.00;98985.94;5094709;28;20086;-44
2023/10/28 02:50:00;;;;;;;2.72;1.60;;;;;;;11.65;100.00;98979.44;5094566;28;20067;-45
2023/10/28 02:52:29;;;;;;;3.28;1.70;;;;;;;11.70;100.00;98985.25;5094355;28;20081;-44
2023/10/28 02:54:57;;;;;;;4.25;1.55;;;;;;;11.73;100.00;98988.50;5094132;28;20051;-43
2023/10/28 02:57:25;;;;;;;3.80;1.65;;;;;;;11.75;100.00;98989.19;5094158;28;20055;-44
2023/10/28 02:59:55;;;;;;;3.60;1.50;;;;;;;11.75;100.00;98985.69;5093593;28;20048;-45
2023/10/28 03:02:24;;;;;;;4.85;1.75;;;;;;;11.77;100.00;98978.38;5092567;28;20097;-45
2023/10/28 03:04:52;;;;;;;2.85;1.45;;;;;;;11.76;100.00;98982.88;5093220;28;20131;-44
2023/10/28 03:07:21;;;;;;;4.63;1.80;;;;;;;11.82;100.00;98981.56;5093585;28;20139;-48
2023/10/28 03:09:49;;;;;;;3.03;1.55;;;;;;;11.85;100.00;98983.97;5093489;28;20079;-43
2023/10/28 03:12:18;;;;;;;3.55;1.55;;;;;;;11.87;100.00;98979.34;5093266;28;20105;-44
2023/10/28 03:14:46;;;;;;;3.88;1.58;;;;;;;11.87;100.00;98974.00;5093739;28;20090;-43
2023/10/28 03:17:17;;;;;;;3.95;2.03;;;;;;;11.90;100.00;98979.09;5094367;28;20044;-44
2023/10/28 03:19:45;;;;;;;3.17;1.27;;;;;;;11.91;100.00;98975.44;5094216;28;20036;-44
2023/10/28 03:22:13;;;;;;;4.22;1.60;;;;;;;11.89;100.00;98982.75;5093163;28;20151;-43
2023/10/28 03:24:41;;;;;;;2.95;1.50;;;;;;;11.76;100.00;98985.56;5092955;28;20135;-43
2023/10/28 03:27:10;;;;;;;3.20;1.60;;;;;;;11.79;100.00;98984.47;5092917;28;20097;-43
2023/10/28 03:29:39;;;;;;;3.63;1.50;;;;;;;11.80;100.00;98986.19;5092736;28;20044;-43
2023/10/28 03:32:10;;;;;;;6.38;1.63;;;;;;;11.80;100.00;98988.88;5092313;28;20093;-43
2023/10/28 03:34:40;;;;;;;6.25;1.48;;;;;;;11.78;100.00;98990.78;5092792;28;20044;-44
2023/10/28 03:37:08;;;;;;;5.13;1.67;;;;;;;11.83;100.00;98993.94;5092674;28;20048;-44
2023/10/28 03:39:38;;;;;;;5.03;1.80;;;;;;;11.79;100.00;98987.13;5092736;28;20382;-43
2023/10/28 03:42:07;;;;;;;5.25;1.67;;;;;;;11.77;100.00;98983.72;5092529;28;20068;-43
2023/10/28 03:44:35;;;;;;;4.70;1.80;;;;;;;11.80;100.00;98980.84;5092597;28;20078;-43
2023/10/28 03:47:04;;;;;;;3.20;1.35;;;;;;;11.80;100.00;98988.03;5092856;28;20101;-43
2023/10/28 03:49:33;;;;;;;3.28;1.58;;;;;;;11.79;100.00;98983.63;5092575;28;20044;-42
2023/10/28 03:52:03;;;;;;;4.65;1.70;;;;;;;11.75;100.00;98993.69;5092655;28;20501;-42
2023/10/28 03:54:31;;;;;;;5.50;2.00;;;;;;;11.69;100.00;98997.75;5092376;28;20192;-44
2023/10/28 03:56:59;;;;;;;5.47;2.05;;;;;;;11.36;100.00;99006.75;5092045;28;20389;-45
2023/10/28 03:59:27;;;;;;;5.32;1.92;;;;;;;11.04;100.00;99013.91;5092473;28;20044;-45
2023/10/28 04:01:55;;;;;;;4.32;2.00;;;;;;;10.69;100.00;99012.25;5092599;28;20048;-43
2023/10/28 04:04:24;;;;;;;4.53;2.13;;;;;;;10.76;100.00;99013.47;5091901;28;20063;-44
2023/10/28 04:06:55;;;;;;;4.95;2.25;;;;;;;10.93;100.00;99020.13;5092206;28;20499;-43
2023/10/28 04:09:24;;;;;;;4.72;2.17;;;;;;;10.80;100.00;99014.91;5091965;28;20040;-44
2023/10/28 04:11:53;;;;;;;4.05;2.40;;;;;;;10.96;100.00;99008.34;5092128;28;20090;-44
2023/10/28 04:14:21;;;;;;;4.78;2.10;;;;;;;10.94;100.00;99015.63;5092129;28;20109;-45
2023/10/28 04:16:50;;;;;;;5.20;2.35;;;;;;;10.91;100.00;99029.22;5093124;28;20044;-45
2023/10/28 04:19:18;;;;;;;4.88;2.40;;;;;;;10.74;100.00;99020.75;5092490;28;20463;-43
2023/10/28 04:21:47;;;;;;;4.15;2.40;;;;;;;10.74;100.00;99022.56;5092178;28;20058;-46
2023/10/28 04:24:15;;;;;;;4.35;2.30;;;;;;;10.85;100.00;99023.41;5092207;28;20048;-43
2023/10/28 04:26:45;;;;;;;4.85;2.75;;;;;;;10.81;100.00;99027.31;5092362;28;20044;-44
2023/10/28 04:29:13;;;;;;;7.70;2.80;;;;;;;10.75;100.00;99027.78;5092345;28;20044;-42
2023/10/28 04:31:42;;;;;;;6.50;2.60;;;;;;;10.79;100.00;99034.56;5092148;28;20051;-44
2023/10/28 04:34:11;;;;;;;6.50;2.40;;;;;;;10.72;100.00;99037.84;5091828;28;20101;-43
2023/10/28 04:36:40;;;;;;;7.03;2.63;;;;;;;10.56;100.00;99027.56;5091664;28;20088;-43
2023/10/28 04:39:08;;;;;;;7.07;2.90;;;;;;;10.39;100.00;99033.38;5092350;28;20051;-44
2023/10/28 04:41:37;;;;;;;6.07;2.55;;;;;;;10.50;100.00;99038.69;5092238;28;20048;-44
2023/10/28 04:44:10;;;;;;;5.15;3.00;;;;;;;10.52;100.00;99034.97;5091826;28;20079;-45
2023/10/28 04:46:38;;;;;;;7.38;3.45;;;;;;;10.49;100.00;99043.19;5092249;28;20044;-43
2023/10/28 04:49:06;;;;;;;9.60;3.70;;;;;;;10.60;100.00;99037.84;5091673;28;20134;-44
2023/10/28 04:51:35;;;;;;;7.47;3.50;;;;;;;10.43;100.00;99045.50;5091910;28;20425;-44
2023/10/28 04:54:03;;;;;;;9.15;4.30;;;;;;;10.39;100.00;99041.34;5091607;28;20488;-46
2023/10/28 04:56:32;;;;;;;7.90;3.60;;;;;;;10.32;100.00;99041.81;5091780;28;20515;-43
2023/10/28 04:59:00;;;;;;;8.45;4.25;;;;;;;10.39;100.00;99036.03;5091547;28;20059;-49
2023/10/28 05:01:30;;;;;;;7.13;3.63;;;;;;;10.36;100.00;99045.13;5091476;28;20068;-44
2023/10/28 05:03:58;;;;;;;7.13;4.15;;;;;;;10.37;100.00;99048.63;5091329;28;20131;-45
2023/10/28 05:06:26;;;;;;;7.85;4.07;;;;;;;10.36;100.00;99049.59;5091341;28;20044;-43
2023/10/28 05:08:54;;;;;;;8.63;5.20;;;;;;;10.15;100.00;99047.63;5091480;28;20044;-44
2023/10/28 05:11:22;;;;;;;11.98;5.63;;;;;;;10.06;100.00;99045.66;5091414;28;20050;-43
2023/10/28 05:13:51;;;;;;;9.63;5.50;;;;;;;9.99;100.00;99055.09;5091498;28;20450;-44
2023/10/28 05:16:23;;;;;;;9.50;6.20;;;;;;;9.90;100.00;99058.44;5091418;28;20055;-43
2023/10/28 05:18:52;;;;;;;11.88;6.88;;;;;;;10.01;100.00;99063.78;5091394;28;20044;-43
2023/10/28 05:21:21;;;;;;;9.23;5.60;;;;;;;10.01;100.00;99069.13;5091675;28;20044;-49
2023/10/28 05:23:49;;;;;;;12.10;6.65;;;;;;;10.06;100.00;99069.63;5093120;28;20481;-44
2023/10/28 05:26:18;;;;;;;10.25;6.25;;;;;;;10.11;100.00;99067.44;5095785;28;20093;-43
2023/10/28 05:28:47;;;;;;;11.55;6.45;;;;;;;10.25;100.00;99069.94;5097352;28;20040;-44
2023/10/28 05:31:15;;;;;;;9.70;5.88;;;;;;;10.22;100.00;99083.50;5097086;28;20158;-44
2023/10/28 05:33:44;;;;;;;13.20;6.72;;;;;;;10.11;100.00;99091.44;5096551;28;20051;-43
2023/10/28 05:36:15;;;;;;;12.18;6.95;;;;;;;10.11;100.00;99096.75;5096619;28;20048;-44
2023/10/28 05:38:44;;;;;;;12.73;7.25;;;;;;;9.96;100.00;99105.94;5096308;28;20127;-44
2023/10/28 05:41:12;;;;;;;18.17;8.82;;;;;;;9.88;100.00;99111.00;5096272;28;20127;-45
2023/10/28 05:43:41;;;;;;;16.90;9.15;;;;;;;9.77;100.00;99113.63;5096447;28;20054;-44
2023/10/28 05:46:09;;;;;;;17.00;10.15;;;;;;;9.73;100.00;99118.31;5096320;28;20055;-46
2023/10/28 05:48:38;;;;;;;18.65;10.60;;;;;;;9.69;100.00;99122.16;5096750;28;20040;-46
2023/10/28 05:51:09;;;;;;;20.88;10.40;;;;;;;9.68;100.00;99116.00;5096843;28;20047;-43
2023/10/28 05:53:39;;;;;;;22.33;10.32;;;;;;;9.71;100.00;99123.75;5095762;28;20093;-45
2023/10/28 05:56:08;;;;;;;21.77;11.00;;;;;;;9.85;100.00;99127.22;5095083;28;20055;-44
2023/10/28 05:58:36;;;;;;;24.27;11.27;;;;;;;9.95;100.00;99150.38;5095079;28;20048;-45
2023/10/28 06:01:05;;;;;;;21.60;10.32;;;;;;;9.98;100.00;99154.63;5095213;28;20477;-44
2023/10/28 06:03:33;;;;;;;19.58;10.20;;;;;;;10.11;100.00;99154.53;5095168;28;20040;-45
2023/10/28 06:06:02;;;;;;;21.27;10.80;;;;;;;10.32;100.00;99158.25;5095529;28;20071;-45
2023/10/28 06:08:30;;;;;;;19.52;10.60;;;;;;;10.35;100.00;99162.53;5095353;28;20050;-45
2023/10/28 06:10:59;;;;;;;19.33;9.60;;;;;;;10.32;100.00;99164.44;5095806;28;20123;-44
2023/10/28 06:13:28;;;;;;;16.48;10.45;;;;;;;10.33;100.00;99173.31;5095127;28;20581;-43
2023/10/28 06:15:57;;;;;;;22.00;10.70;;;;;;;10.40;100.00;99182.53;5095462;28;20074;-44
2023/10/28 06:18:25;;;;;;;19.15;10.35;;;;;;;10.48;100.00;99173.94;5095417;28;20048;-45
2023/10/28 06:20:53;;;;;;;15.80;10.05;;;;;;;10.60;100.00;99175.66;5095418;28;20040;-46
2023/10/28 06:23:22;;;;;;;15.25;9.68;;;;;;;10.59;100.00;99187.28;5094530;28;20080;-44
2023/10/28 06:25:50;;;;;;;20.80;10.02;;;;;;;10.61;100.00;99188.00;5095134;28;20043;-45
2023/10/28 06:28:20;;;;;;;18.05;9.68;;;;;;;10.72;100.00;99181.88;5094819;28;20089;-45
2023/10/28 06:30:49;;;;;;;14.88;9.45;;;;;;;10.76;100.00;99188.66;5094552;28;20396;-45
2023/10/28 06:33:19;;;;;;;13.52;8.95;;;;;;;10.85;100.00;99183.47;5094821;28;20157;-43
2023/10/28 06:35:47;;;;;;;16.67;9.30;;;;;;;10.92;100.00;99180.31;5094661;28;20138;-44
2023/10/28 06:38:15;;;;;;;13.82;9.15;;;;;;;11.15;100.00;99179.34;5093762;28;20085;-45
2023/10/28 06:40:46;;;;;;;14.60;9.55;;;;;;;11.38;100.00;99181.00;5095046;28;20151;-43
2023/10/28 06:43:18;;;;;;;13.25;8.35;;;;;;;11.57;100.00;99180.38;5094732;28;20433;-45
2023/10/28 06:45:48;;;;;;;13.23;8.48;;;;;;;11.65;100.00;99188.63;5094789;28;20048;-44
2023/10/28 06:48:16;;;;;;;11.77;7.85;;;;;;;11.72;100.00;99194.31;5094421;28;20503;-44
2023/10/28 06:50:45;;;;;;;12.68;7.68;;;;;;;11.65;100.00;99203.78;5094607;28;20066;-43
2023/10/28 06:53:13;;;;;;;12.90;7.57;;;;;;;11.74;100.00;99200.38;5094996;28;20048;-44
2023/10/28 06:55:41;;;;;;;12.27;7.15;;;;;;;11.85;100.00;99205.72;5094011;28;20048;-44
2023/10/28 06:58:10;;;;;;;10.57;6.70;;;;;;;12.02;100.00;99202.50;5093448;28;20511;-43
2023/10/28 07:00:38;;;;;;;10.07;7.03;;;;;;;12.08;100.00;99211.03;5094352;28;20109;-44
2023/10/28 07:03:08;;;;;;;10.18;6.72;;;;;;;12.21;100.00;99207.19;5094365;28;20044;-45
2023/10/28 07:05:38;;;;;;;10.65;5.97;;;;;;;12.19;100.00;99213.66;5095586;28;20047;-45
2023/10/28 07:08:06;;;;;;;8.65;5.95;;;;;;;12.36;100.00;99221.13;5094197;28;20135;-44
2023/10/28 07:10:34;;;;;;;9.60;6.10;;;;;;;12.50;100.00;99228.81;5095317;28;20047;-44
2023/10/28 07:13:02;;;;;;;13.38;6.28;;;;;;;12.67;100.00;99229.22;5095314;28;20097;-45
2023/10/28 07:15:31;;;;;;;8.55;5.75;;;;;;;12.80;100.00;99235.22;5094853;28;20048;-44
2023/10/28 07:17:59;;;;;;;9.20;6.22;;;;;;;12.82;100.00;99244.78;5094855;28;20448;-44
2023/10/28 07:20:29;;;;;;;9.68;5.47;;;;;;;12.92;100.00;99244.84;5094507;28;20094;-44
2023/10/28 07:22:57;;;;;;;7.75;5.70;;;;;;;13.07;100.00;99258.78;5094456;28;20500;-44
2023/10/28 07:25:27;;;;;;;8.70;5.78;;;;;;;13.17;100.00;99259.66;5094110;28;20071;-43
2023/10/28 07:27:56;;;;;;;8.43;5.70;;;;;;;13.15;100.00;99262.47;5094228;28;20074;-44
2023/10/28 07:30:24;;;;;;;8.52;5.85;;;;;;;13.10;100.00;99261.16;5093422;28;20066;-44
2023/10/28 07:32:52;;;;;;;8.60;5.53;;;;;;;13.26;100.00;99268.78;5092828;28;20075;-43
2023/10/28 07:35:21;;;;;;;8.48;5.53;;;;;;;13.35;100.00;99267.97;5092977;28;20055;-43
2023/10/28 07:37:51;;;;;;;10.57;6.00;;;;;;;13.46;100.00;99271.41;5093279;28;20105;-44
2023/10/28 07:40:19;;;;;;;7.88;5.78;;;;;;;13.61;100.00;99287.97;5093376;28;20070;-45
2023/10/28 07:42:47;;;;;;;9.93;5.93;;;;;;;13.72;100.00;99287.88;5093206;28;20048;-42
2023/10/28 07:45:15;;;;;;;10.32;5.90;;;;;;;13.74;100.00;99290.41;5093453;28;20493;-44
2023/10/28 07:47:47;;;;;;;9.70;6.38;;;;;;;13.48;100.00;99298.06;5092995;28;20135;-43
2023/10/28 07:50:15;;;;;;;9.15;6.30;;;;;;;13.37;100.00;99292.78;5093274;28;20477;-41
2023/10/28 07:52:44;;;;;;;10.60;6.85;;;;;;;13.34;100.00;99293.06;5093601;28;20459;-42
2023/10/28 07:55:14;;;;;;;12.07;7.13;;;;;;;13.21;100.00;99282.53;5093189;28;20048;-43
2023/10/28 07:57:43;;;;;;;10.27;7.38;;;;;;;13.28;100.00;99288.22;5092784;28;20097;-43
2023/10/28 08:00:13;;;;;;;11.70;7.03;;;;;;;13.35;100.00;99289.41;5093266;28;20464;-44
2023/10/28 08:02:45;;;;;;;11.63;7.07;;;;;;;13.26;100.00;99295.56;5093471;28;20148;-44
2023/10/28 08:05:14;;;;;;;12.27;8.00;;;;;;;13.11;100.00;99295.00;5093100;28;20052;-43
2023/10/28 08:07:42;;;;;;;10.82;7.95;;;;;;;12.89;100.00;99298.66;5093015;28;20294;-42
2023/10/28 08:10:11;;;;;;;12.00;7.32;;;;;;;12.78;100.00;99302.25;5093025;28;20089;-44
2023/10/28 08:12:41;;;;;;;12.05;8.20;;;;;;;12.67;100.00;99314.84;5092961;28;20135;-43
2023/10/28 08:15:10;;;;;;;11.35;7.85;;;;;;;12.65;100.00;99311.44;5092798;28;20097;-43
2023/10/28 08:17:38;;;;;;;13.10;7.95;;;;;;;12.60;100.00;99309.97;5092741;28;20043;-43
2023/10/28 08:20:08;;;;;;;16.40;8.68;;;;;;;12.63;100.00;99319.56;5093012;28;20106;-44
2023/10/28 08:22:37;;;;;;;12.32;8.20;;;;;;;12.68;100.00;99311.19;5091769;28;20060;-42
2023/10/28 08:25:06;;;;;;;14.57;9.40;;;;;;;12.74;100.00;99314.19;5092071;28;20063;-43
2023/10/28 08:27:35;;;;;;;19.40;10.07;;;;;;;12.82;100.00;99311.69;5092009;28;20127;-44
2023/10/28 08:30:07;;;;;;;16.38;9.40;;;;;;;13.04;100.00;99312.59;5091939;28;20055;-48
2023/10/28 08:32:38;;;;;;;17.00;10.88;;;;;;;13.20;100.00;99320.16;5092353;28;20063;-42
2023/10/28 08:35:07;;;;;;;18.00;10.45;;;;;;;13.18;100.00;99330.97;5091877;28;20048;-43
2023/10/28 08:37:35;;;;;;;14.70;10.15;;;;;;;13.13;100.00;99333.22;5092121;28;20036;-42
2023/10/28 08:40:07;;;;;;;16.13;10.48;;;;;;;13.13;100.00;99334.06;5091755;28;20044;-42
2023/10/28 08:42:36;;;;;;;16.33;10.70;;;;;;;13.29;100.00;99338.97;5092378;28;20048;-43
2023/10/28 08:45:08;;;;;;;14.13;9.63;;;;;;;13.36;100.00;99352.69;5092664;28;20144;-44
2023/10/28 08:47:39;;;;;;;14.77;9.83;;;;;;;13.46;100.00;99351.78;5092280;28;20089;-43
2023/10/28 08:50:08;;;;;;;15.35;9.55;;;;;;;13.57;100.00;99356.19;5092332;28;20093;-44
2023/10/28 08:52:38;;;;;;;14.32;9.35;;;;;;;13.64;100.00;99349.34;5092576;28;20138;-43
2023/10/28 08:55:10;;;;;;;15.70;9.25;;;;;;;13.62;100.00;99362.03;5092646;28;20139;-45
2023/10/28 08:57:43;;;;;;;14.60;8.93;;;;;;;13.69;100.00;99352.44;5092069;28;20485;-43
2023/10/28 09:00:15;;;;;;;14.43;9.50;;;;;;;13.73;100.00;99351.22;5091138;28;20162;-43
2023/10/28 09:02:46;;;;;;;14.07;9.50;;;;;;;13.82;100.00;99356.75;5092266;28;20047;-41
2023/10/28 09:05:16;;;;;;;14.38;9.20;;;;;;;13.90;100.00;99354.25;5092205;28;20416;-43
2023/10/28 09:07:45;;;;;;;15.82;9.90;;;;;;;14.03;100.00;99365.59;5091862;28;20101;-42
2023/10/28 09:10:14;;;;;;;18.83;10.55;;;;;;;14.06;100.00;99365.28;5091969;28;20052;-44
2023/10/28 09:12:44;;;;;;;16.15;9.90;;;;;;;14.06;100.00;99377.84;5091890;28;20056;-44
2023/10/28 09:15:14;;;;;;;15.60;9.52;;;;;;;14.12;100.00;99375.50;5092103;28;20139;-44
2023/10/28 09:17:42;;;;;;;16.73;10.07;;;;;;;14.17;100.00;99394.69;5092042;28;20127;-45
2023/10/28 09:20:11;;;;;;;18.05;9.65;;;;;;;14.13;100.00;99397.78;5091921;28;20044;-43
2023/10/28 09:22:45;;;;;;;17.17;10.07;;;;;;;14.19;100.00;99389.22;5091902;28;20044;-43
2023/10/28 09:25:15;;;;;;;16.30;10.25;;;;;;;14.19;100.00;99390.06;5092200;28;20365;-43
2023/10/28 09:27:45;;;;;;;14.88;9.05;;;;;;;14.18;100.00;99385.66;5092182;28;20052;-43
2023/10/28 09:30:17;;;;;;;16.95;9.82;;;;;;;14.22;100.00;99386.25;5092311;28;20060;-41
2023/10/28 09:32:46;;;;;;;18.30;10.10;;;;;;;14.18;100.00;99387.50;5092174;28;20048;-43
2023/10/28 09:35:14;;;;;;;16.55;9.73;;;;;;;14.23;100.00;99386.09;5091939;28;20113;-44
2023/10/28 09:37:44;;;;;;;17.92;10.25;;;;;;;14.31;100.00;99388.13;5091959;28;20139;-44
2023/10/28 09:40:14;;;;;;;17.55;9.73;;;;;;;14.38;100.00;99391.06;5092894;28;20084;-45
2023/10/28 09:42:43;;;;;;;14.02;9.10;;;;;;;14.43;100.00;99383.47;5093351;28;20048;-44
2023/10/28 09:45:12;;;;;;;16.83;10.50;;;;;;;14.29;100.00;99382.88;5091733;28;20097;-45
2023/10/28 09:47:56;;;;;;;17.15;9.45;;;;;;;14.40;100.00;99381.09;5092873;28;20583;-43
2023/10/28 09:50:29;;;;;;;16.38;9.77;;;;;;;14.43;100.00;99378.97;5091723;28;20044;-44
2023/10/28 09:52:58;;;;;;;18.52;10.82;;;;;;;14.49;100.00;99377.59;5091722;28;20071;-43
2023/10/28 09:55:31;;;;;;;17.23;9.75;;;;;;;14.53;100.00;99370.97;5091654;28;20044;-44
2023/10/28 09:58:07;;;;;;;17.63;10.65;;;;;;;14.50;100.00;99371.25;5091389;28;20048;-44
2023/10/28 10:00:37;;;;;;;14.70;8.63;;;;;;;14.54;100.00;99364.59;5091424;28;20428;-49
2023/10/28 10:03:26;;;;;;;11.60;7.85;;;;;;;14.64;100.00;99367.31;5091403;28;20052;-43
2023/10/28 10:05:57;;;;;;;12.73;8.15;;;;;;;14.67;100.00;99370.56;5091500;28;20048;-43
2023/10/28 10:08:25;;;;;;;11.07;6.97;;;;;;;14.71;100.00;99371.97;5091930;28;20048;-43
2023/10/28 10:10:55;;;;;;;11.23;7.60;;;;;;;14.74;100.00;99369.00;5091648;28;20413;-43
2023/10/28 10:13:24;;;;;;;14.55;8.15;;;;;;;14.74;100.00;99366.31;5094604;28;20444;-44
2023/10/28 10:15:56;;;;;;;12.25;8.57;;;;;;;14.76;100.00;99366.19;5095499;28;20044;-42
2023/10/28 10:18:33;;;;;;;11.90;8.05;;;;;;;14.86;100.00;99370.59;5094828;28;20081;-44
2023/10/28 10:21:09;;;;;;;11.98;7.78;;;;;;;14.93;100.00;99370.84;5094836;28;20048;-43
2023/10/28 10:23:45;;;;;;;11.88;7.80;;;;;;;14.96;100.00;99369.72;5094480;28;20052;-43
2023/10/28 10:26:21;;;;;;;11.77;7.50;;;;;;;15.04;100.00;99372.53;5094634;28;20051;-43
2023/10/28 10:28:53;;;;;;;14.52;7.60;;;;;;;15.09;100.00;99370.28;5094702;28;20048;-44
2023/10/28 10:31:23;;;;;;;11.38;7.22;;;;;;;15.27;100.00;99363.22;5094752;28;20461;-43
2023/10/28 10:34:11;;;;;;;14.27;7.35;;;;;;;15.29;100.00;99366.59;5094694;28;20161;-44
2023/10/28 10:36:40;;;;;;;14.32;7.00;;;;;;;15.30;100.00;99362.91;5093019;28;20505;-45
2023/10/28 10:39:15;;;;;;;15.27;7.88;;;;;;;15.44;100.00;99357.09;5094579;28;20048;-45
2023/10/28 10:41:47;;;;;;;12.35;7.20;;;;;;;15.50;100.00;99354.81;5094481;28;20056;-44
2023/10/28 10:44:23;;;;;;;13.73;6.93;;;;;;;15.65;100.00;99350.72;5094537;28;20047;-43
2023/10/28 10:46:51;;;;;;;12.07;6.28;;;;;;;15.79;100.00;99349.38;5094247;28;20079;-44
2023/10/28 10:49:21;;;;;;;9.45;5.47;;;;;;;15.92;100.00;99358.81;5094433;28;20048;-44
2023/10/28 10:51:50;;;;;;;9.75;5.20;;;;;;;15.90;100.00;99363.47;5094623;28;20378;-44
2023/10/28 10:54:19;;;;;;;8.40;4.85;;;;;;;15.91;100.00;99362.47;5093747;28;20048;-43
2023/10/28 10:56:48;;;;;;;8.10;4.82;;;;;;;15.95;100.00;99371.97;5093680;28;20062;-43
2023/10/28 10:59:16;;;;;;;8.02;5.03;;;;;;;15.97;100.00;99369.13;5093387;28;20048;-44
2023/10/28 11:01:46;;;;;;;8.77;4.97;;;;;;;15.95;100.00;99371.97;5093214;28;20056;-45
2023/10/28 11:04:15;;;;;;;8.70;4.50;;;;;;;15.96;100.00;99360.22;5093314;28;20413;-46
2023/10/28 11:06:45;;;;;;;8.15;4.72;;;;;;;15.93;100.00;99368.59;5093423;28;20120;-44
2023/10/28 11:09:15;;;;;;;8.10;4.40;;;;;;;15.90;100.00;99366.16;5093387;28;20126;-44
2023/10/28 11:11:43;;;;;;;7.72;4.47;;;;;;;15.93;100.00;99373.97;5093291;28;20508;-45
2023/10/28 11:14:12;;;;;;;9.38;4.93;;;;;;;16.01;100.00;99365.97;5093038;28;20448;-44
2023/10/28 11:16:42;;;;;;;7.20;4.60;;;;;;;15.92;100.00;99366.00;5093012;28;20511;-43
2023/10/28 11:19:11;;;;;;;6.93;3.50;;;;;;;15.99;100.00;99367.13;5093516;28;20051;-43
2023/10/28 11:21:41;;;;;;;5.75;3.22;;;;;;;16.09;100.00;99359.00;5092907;28;20056;-44
2023/10/28 11:24:13;;;;;;;5.53;2.90;;;;;;;16.10;100.00;99360.72;5092523;28;20475;-44
2023/10/28 11:26:46;;;;;;;4.18;2.13;;;;;;;16.16;100.00;99366.34;5092963;28;20082;-43
2023/10/28 11:29:17;;;;;;;3.47;2.10;;;;;;;16.21;100.00;99363.19;5093466;28;20099;-44
2023/10/28 11:31:46;;;;;;;4.05;1.95;;;;;;;16.23;100.00;99351.31;5093230;28;20044;-43